createdAt,value
2019-01-13T00:01:21.293Z,2.67
2019-01-13T00:03:51.567Z,2.70
2019-01-13T00:06:21.428Z,2.60
2019-01-13T00:08:51.389Z,3.00
2019-01-13T00:11:21.393Z,2.57
2019-01-13T00:13:51.425Z,2.70
2019-01-13T00:16:21.429Z,2.93
2019-01-13T00:18:51.483Z,2.77
2019-01-13T00:21:21.419Z,2.43
2019-01-13T00:23:51.304Z,3.37
2019-01-13T00:26:21.167Z,2.97
2019-01-13T00:28:51.066Z,2.20
2019-01-13T00:31:21.122Z,2.80
2019-01-13T00:33:51.149Z,2.37
2019-01-13T00:36:21.070Z,3.07
2019-01-13T00:38:51.068Z,2.20
2019-01-13T00:41:20.995Z,2.57
2019-01-13T00:43:50.933Z,2.83
2019-01-13T00:46:21.012Z,2.60
2019-01-13T00:48:51.067Z,1.80
2019-01-13T00:51:21.032Z,2.00
2019-01-13T00:53:50.931Z,1.97
2019-01-13T00:56:20.937Z,4.33
2019-01-13T00:58:50.996Z,2.23
2019-01-13T01:01:20.997Z,2.40
2019-01-13T01:03:50.963Z,1.80
2019-01-13T01:06:20.874Z,1.80
2019-01-13T01:08:50.921Z,2.10
2019-01-13T01:11:21.262Z,2.43
2019-01-13T01:13:51.237Z,2.50
2019-01-13T01:16:21.367Z,2.20
2019-01-13T01:18:51.298Z,2.80
2019-01-13T01:21:21.364Z,2.30
2019-01-13T01:23:51.266Z,2.37
2019-01-13T01:26:21.134Z,2.63
2019-01-13T01:28:51.030Z,1.90
2019-01-13T01:31:21.055Z,2.30
2019-01-13T01:33:51.027Z,2.40
2019-01-13T01:36:21.111Z,2.00
2019-01-13T01:38:51.085Z,2.20
2019-01-13T01:41:20.899Z,2.80
2019-01-13T01:43:50.857Z,2.03
2019-01-13T01:46:20.875Z,2.93
2019-01-13T01:48:50.930Z,2.23
2019-01-13T01:51:20.857Z,2.00
2019-01-13T01:53:50.749Z,2.00
2019-01-13T01:56:20.715Z,2.00
2019-01-13T01:58:50.688Z,2.50
2019-01-13T02:01:20.709Z,2.27
2019-01-13T02:03:50.625Z,2.40
2019-01-13T02:06:20.677Z,2.57
2019-01-13T02:08:50.579Z,3.50
2019-01-13T02:11:20.432Z,2.73
2019-01-13T02:13:50.317Z,2.27
2019-01-13T02:16:20.177Z,2.70
2019-01-13T02:18:50.112Z,2.07
2019-01-13T02:21:20.121Z,2.60
2019-01-13T02:23:50.196Z,1.77
2019-01-13T02:26:20.030Z,2.50
2019-01-13T02:28:49.921Z,2.10
2019-01-13T02:31:19.808Z,2.50
2019-01-13T02:33:49.740Z,2.10
2019-01-13T02:36:19.601Z,2.50
2019-01-13T02:38:49.454Z,2.83
2019-01-13T02:41:19.334Z,2.60
2019-01-13T02:43:49.623Z,2.50
2019-01-13T02:46:19.622Z,3.30
2019-01-13T02:48:49.600Z,2.70
2019-01-13T02:51:19.611Z,2.87
2019-01-13T02:53:49.641Z,3.03
2019-01-13T02:56:19.594Z,3.67
2019-01-13T02:58:49.550Z,2.97
2019-01-13T03:01:19.422Z,3.20
2019-01-13T03:03:49.441Z,3.50
2019-01-13T03:06:19.309Z,2.90
2019-01-13T03:08:49.167Z,2.83
2019-01-13T03:11:19.145Z,3.37
2019-01-13T03:13:48.990Z,3.50
2019-01-13T03:16:18.868Z,2.67
2019-01-13T03:18:48.839Z,3.13
2019-01-13T03:21:18.776Z,2.93
2019-01-13T03:23:48.631Z,2.97
2019-01-13T03:26:18.528Z,2.03
2019-01-13T03:28:48.416Z,2.60
2019-01-13T03:31:18.367Z,2.87
2019-01-13T03:33:49.264Z,3.00
2019-01-13T03:36:19.166Z,2.07
2019-01-13T03:38:49.100Z,2.47
2019-01-13T03:41:19.057Z,2.20
2019-01-13T03:43:49.242Z,2.53
2019-01-13T03:46:19.232Z,2.63
2019-01-13T03:48:49.156Z,2.80
2019-01-13T03:51:21.975Z,2.57
2019-01-13T03:53:51.831Z,2.27
2019-01-13T03:56:21.734Z,2.57
2019-01-13T03:58:51.725Z,2.20
2019-01-13T04:01:21.567Z,2.53
2019-01-13T04:03:51.500Z,2.13
2019-01-13T04:06:21.456Z,2.70
2019-01-13T04:08:51.382Z,2.20
2019-01-13T04:11:21.347Z,2.50
2019-01-13T04:13:51.266Z,2.30
2019-01-13T04:16:21.134Z,2.33
2019-01-13T04:18:51.063Z,2.80
2019-01-13T04:21:20.912Z,2.63
2019-01-13T04:23:50.771Z,3.23
2019-01-13T04:26:20.673Z,2.80
2019-01-13T04:28:50.555Z,3.23
2019-01-13T04:31:26.768Z,2.67
2019-01-13T04:33:52.081Z,2.73
2019-01-13T04:36:21.942Z,2.40
2019-01-13T04:38:51.845Z,3.67
2019-01-13T04:41:21.712Z,2.83
2019-01-13T04:43:51.587Z,3.10
2019-01-13T04:46:21.439Z,3.30
2019-01-13T04:48:51.382Z,3.13
2019-01-13T04:51:21.330Z,2.60
2019-01-13T04:53:51.242Z,3.10
2019-01-13T04:56:21.599Z,2.87
2019-01-13T04:58:52.010Z,3.30
2019-01-13T05:01:23.541Z,2.80
2019-01-13T05:03:53.541Z,3.27
2019-01-13T05:06:23.411Z,3.10
2019-01-13T05:08:53.339Z,2.90
2019-01-13T05:11:23.233Z,3.43
2019-01-13T05:13:53.121Z,2.93
2019-01-13T05:16:22.994Z,3.53
2019-01-13T05:18:53.179Z,4.13
2019-01-13T05:21:23.016Z,3.30
2019-01-13T05:23:52.955Z,3.27
2019-01-13T05:26:22.956Z,3.50
2019-01-13T05:28:52.840Z,3.50
2019-01-13T05:31:22.773Z,3.50
2019-01-13T05:33:53.884Z,3.70
2019-01-13T05:36:23.815Z,3.63
2019-01-13T05:38:53.779Z,3.50
2019-01-13T05:41:23.704Z,3.30
2019-01-13T05:43:53.597Z,3.70
2019-01-13T05:46:23.597Z,4.13
2019-01-13T05:48:53.976Z,3.70
2019-01-13T05:51:23.988Z,3.90
2019-01-13T05:53:53.841Z,3.87
2019-01-13T05:56:23.732Z,3.30
2019-01-13T05:58:53.781Z,3.43
2019-01-13T06:01:23.763Z,3.80
2019-01-13T06:03:53.795Z,4.10
2019-01-13T06:06:23.727Z,4.00
2019-01-13T06:08:53.670Z,3.93
2019-01-13T06:11:23.629Z,3.93
2019-01-13T06:13:53.665Z,4.43
2019-01-13T06:16:23.605Z,3.73
2019-01-13T06:18:53.485Z,4.33
2019-01-13T06:21:23.329Z,6.40
2019-01-13T06:23:53.197Z,5.13
2019-01-13T06:26:23.056Z,4.30
2019-01-13T06:28:52.937Z,3.97
2019-01-13T06:31:22.861Z,4.43
2019-01-13T06:33:52.888Z,3.80
2019-01-13T06:36:22.745Z,4.03
2019-01-13T06:38:52.647Z,4.40
2019-01-13T06:41:22.620Z,5.07
2019-01-13T06:43:52.687Z,5.90
2019-01-13T06:46:22.546Z,5.40
2019-01-13T06:48:52.489Z,5.67
2019-01-13T06:51:22.323Z,5.70
2019-01-13T06:53:52.283Z,5.27
2019-01-13T06:56:22.218Z,5.70
2019-01-13T06:58:52.113Z,6.10
2019-01-13T07:01:22.069Z,5.60
2019-01-13T07:03:52.026Z,6.70
2019-01-13T07:06:21.983Z,6.00
2019-01-13T07:08:52.055Z,6.17
2019-01-13T07:11:21.888Z,6.40
2019-01-13T07:13:51.833Z,5.50
2019-01-13T07:16:21.749Z,6.63
2019-01-13T07:18:51.756Z,6.53
2019-01-13T07:21:21.614Z,6.13
2019-01-13T07:23:51.499Z,5.77
2019-01-13T07:26:21.350Z,5.87
2019-01-13T07:28:51.228Z,5.93
2019-01-13T07:31:21.165Z,5.00
2019-01-13T07:33:51.179Z,5.07
2019-01-13T07:36:21.119Z,4.60
2019-01-13T07:38:51.091Z,4.40
2019-01-13T07:41:20.916Z,4.10
2019-01-13T07:43:50.807Z,4.57
2019-01-13T07:46:20.652Z,3.37
2019-01-13T07:48:50.645Z,3.70
2019-01-13T07:51:20.980Z,3.90
2019-01-13T07:53:50.897Z,3.80
2019-01-13T07:56:20.780Z,3.50
2019-01-13T07:58:50.773Z,3.53
2019-01-13T08:01:20.686Z,3.13
2019-01-13T08:03:50.698Z,3.00
2019-01-13T08:06:21.369Z,2.53
2019-01-13T08:08:52.213Z,2.90
2019-01-13T08:11:21.977Z,2.50
2019-01-13T08:13:51.813Z,2.63
2019-01-13T08:16:21.778Z,2.10
2019-01-13T08:18:51.720Z,2.43
2019-01-13T08:21:25.692Z,2.57
2019-01-13T08:23:55.655Z,3.33
2019-01-13T08:26:25.600Z,3.53
2019-01-13T08:28:55.455Z,4.30
2019-01-13T08:31:25.377Z,3.90
2019-01-13T08:33:55.361Z,5.23
2019-01-13T08:36:26.072Z,4.80
2019-01-13T08:38:55.899Z,5.10
2019-01-13T08:41:25.852Z,4.37
2019-01-13T08:43:55.853Z,3.73
2019-01-13T08:46:25.735Z,4.23
2019-01-13T08:48:55.653Z,4.00
2019-01-13T08:51:25.508Z,3.77
2019-01-13T08:53:55.432Z,4.07
2019-01-13T08:56:25.375Z,3.27
2019-01-13T08:58:55.364Z,2.90
2019-01-13T09:01:25.207Z,3.53
2019-01-13T09:03:55.144Z,3.70
2019-01-13T09:06:24.993Z,3.07
2019-01-13T09:08:54.850Z,3.00
2019-01-13T09:11:24.731Z,2.73
2019-01-13T09:13:54.590Z,2.37
2019-01-13T09:16:24.560Z,2.50
2019-01-13T09:18:54.412Z,2.40
2019-01-13T09:21:24.368Z,2.20
2019-01-13T09:23:54.276Z,2.20
2019-01-13T09:26:24.335Z,2.30
2019-01-13T09:28:54.269Z,1.70
2019-01-13T09:31:24.164Z,1.90
2019-01-13T09:33:54.014Z,2.17
2019-01-13T09:36:23.937Z,1.80
2019-01-13T09:38:54.011Z,1.60
2019-01-13T09:41:24.022Z,2.17
2019-01-13T09:43:54.011Z,2.13
2019-01-13T09:46:24.399Z,1.97
2019-01-13T09:48:54.316Z,1.63
2019-01-13T09:51:24.552Z,1.57
2019-01-13T09:53:55.294Z,1.80
2019-01-13T09:56:25.754Z,1.60
2019-01-13T09:58:56.074Z,2.20
2019-01-13T10:01:26.067Z,1.83
2019-01-13T10:03:55.995Z,1.87
2019-01-13T10:06:25.867Z,2.00
2019-01-13T10:08:55.790Z,2.20
2019-01-13T10:11:25.659Z,1.87
2019-01-13T10:13:55.632Z,1.77
2019-01-13T10:16:25.532Z,2.10
2019-01-13T10:18:55.446Z,1.97
2019-01-13T10:21:25.457Z,1.50
2019-01-13T10:23:55.440Z,1.50
2019-01-13T10:26:25.468Z,1.70
2019-01-13T10:28:55.456Z,1.80
2019-01-13T10:31:25.325Z,1.60
2019-01-13T10:33:55.161Z,1.80
2019-01-13T10:36:25.150Z,2.17
2019-01-13T10:38:54.990Z,1.77
2019-01-13T10:41:25.349Z,1.90
2019-01-13T10:43:55.343Z,2.10
2019-01-13T10:46:25.217Z,1.60
2019-01-13T10:48:55.132Z,1.40
2019-01-13T10:51:24.988Z,1.83
2019-01-13T10:53:54.912Z,1.70
2019-01-13T10:56:24.808Z,1.70
2019-01-13T10:58:54.749Z,1.70
2019-01-13T11:01:24.585Z,1.50
2019-01-13T11:03:54.452Z,1.60
2019-01-13T11:06:24.369Z,1.97
2019-01-13T11:08:54.326Z,1.53
2019-01-13T11:11:24.338Z,1.63
2019-01-13T11:13:54.313Z,1.40
2019-01-13T11:16:24.153Z,2.10
2019-01-13T11:18:54.021Z,1.40
2019-01-13T11:21:23.942Z,1.30
2019-01-13T11:23:53.800Z,1.30
2019-01-13T11:26:23.637Z,1.43
2019-01-13T11:28:53.545Z,1.27
2019-01-13T11:31:23.359Z,1.10
2019-01-13T11:33:53.313Z,1.20
2019-01-13T11:36:23.161Z,0.87
2019-01-13T11:38:53.021Z,1.00
2019-01-13T11:41:22.879Z,1.10
2019-01-13T11:43:52.839Z,1.03
2019-01-13T11:46:22.758Z,1.20
2019-01-13T11:48:52.706Z,0.97
2019-01-13T11:51:22.560Z,0.90
2019-01-13T11:53:52.471Z,1.00
2019-01-13T11:56:22.311Z,0.97
2019-01-13T11:58:52.366Z,1.10
2019-01-13T12:01:22.294Z,1.10
2019-01-13T12:03:52.244Z,0.90
2019-01-13T12:06:22.184Z,1.00
2019-01-13T12:08:52.150Z,1.03
2019-01-13T12:11:21.968Z,1.00
2019-01-13T12:13:51.836Z,0.90
2019-01-13T12:16:21.676Z,0.90
2019-01-13T12:18:51.775Z,1.03
2019-01-13T12:21:21.671Z,0.97
2019-01-13T12:23:51.612Z,0.90
2019-01-13T12:26:21.452Z,1.00
2019-01-13T12:28:51.327Z,0.93
2019-01-13T12:31:21.152Z,0.90
2019-01-13T12:33:51.016Z,1.00
2019-01-13T12:36:20.836Z,0.90
2019-01-13T12:38:50.808Z,1.10
2019-01-13T12:41:20.633Z,2.17
2019-01-13T12:43:50.495Z,1.20
2019-01-13T12:46:20.332Z,1.90
2019-01-13T12:48:50.203Z,1.50
2019-01-13T12:51:20.189Z,1.50
2019-01-13T12:53:50.052Z,1.60
2019-01-13T12:56:19.963Z,0.97
2019-01-13T12:58:49.829Z,1.00
2019-01-13T13:01:19.809Z,1.60
2019-01-13T13:03:49.854Z,1.00
2019-01-13T13:06:19.715Z,0.90
2019-01-13T13:08:49.567Z,1.07
2019-01-13T13:11:19.489Z,1.00
2019-01-13T13:13:49.395Z,0.90
2019-01-13T13:16:19.324Z,1.00
2019-01-13T13:18:49.304Z,1.20
2019-01-13T13:21:19.281Z,1.00
2019-01-13T13:23:49.175Z,0.97
2019-01-13T13:26:19.115Z,0.80
2019-01-13T13:28:48.995Z,1.10
2019-01-13T13:31:18.889Z,0.90
2019-01-13T13:33:49.094Z,0.90
2019-01-13T13:36:18.944Z,1.07
2019-01-13T13:38:48.828Z,0.70
2019-01-13T13:41:18.763Z,1.00
2019-01-13T13:43:47.355Z,0.80
2019-01-13T13:46:17.229Z,0.90
2019-01-13T13:48:47.100Z,1.07
2019-01-13T13:51:17.709Z,0.80
2019-01-13T13:53:47.595Z,0.77
2019-01-13T13:56:17.477Z,1.13
2019-01-13T13:58:47.341Z,1.13
2019-01-13T14:01:17.284Z,1.10
2019-01-13T14:03:47.490Z,0.90
2019-01-13T14:06:17.344Z,0.90
2019-01-13T14:08:47.304Z,1.00
2019-01-13T14:11:17.322Z,1.00
2019-01-13T14:13:47.176Z,0.97
2019-01-13T14:16:17.067Z,0.90
2019-01-13T14:18:47.598Z,0.97
2019-01-13T14:21:17.635Z,1.00
2019-01-13T14:23:47.534Z,1.00
2019-01-13T14:26:17.490Z,0.80
2019-01-13T14:28:47.323Z,0.70
2019-01-13T14:31:17.249Z,0.80
2019-01-13T14:33:52.903Z,0.80
2019-01-13T14:36:18.547Z,0.80
2019-01-13T14:38:48.766Z,0.97
2019-01-13T14:41:18.712Z,0.80
2019-01-13T14:43:49.377Z,0.80
2019-01-13T14:46:21.440Z,1.00
2019-01-13T14:48:51.331Z,0.90
2019-01-13T14:51:21.657Z,0.97
2019-01-13T14:53:51.661Z,0.80
2019-01-13T14:56:21.761Z,0.80
2019-01-13T14:58:52.278Z,0.90
2019-01-13T15:01:22.148Z,0.90
2019-01-13T15:03:52.078Z,0.90
2019-01-13T15:06:22.017Z,1.03
2019-01-13T15:08:52.510Z,0.80
2019-01-13T15:11:22.365Z,0.70
2019-01-13T15:13:52.647Z,0.80
2019-01-13T15:16:22.504Z,0.83
2019-01-13T15:18:52.783Z,0.77
2019-01-13T15:21:22.674Z,1.00
2019-01-13T15:23:52.520Z,0.87
2019-01-13T15:26:22.433Z,0.80
2019-01-13T15:28:52.883Z,0.87
2019-01-13T15:31:22.885Z,0.90
2019-01-13T15:33:52.921Z,0.90
2019-01-13T15:36:22.904Z,1.10
2019-01-13T15:38:52.844Z,0.80
2019-01-13T15:41:23.004Z,0.80
2019-01-13T15:43:52.838Z,0.80
2019-01-13T15:46:22.854Z,0.80
2019-01-13T15:48:53.008Z,0.97
2019-01-13T15:51:22.945Z,0.90
2019-01-13T15:53:52.872Z,0.83
2019-01-13T15:56:23.139Z,0.80
2019-01-13T15:58:53.040Z,1.00
2019-01-13T16:01:23.040Z,0.90
2019-01-13T16:03:52.974Z,0.80
2019-01-13T16:06:22.960Z,0.80
2019-01-13T16:08:52.880Z,0.90
2019-01-13T16:11:22.838Z,0.93
2019-01-13T16:13:52.696Z,0.90
2019-01-13T16:16:22.717Z,0.90
2019-01-13T16:18:52.570Z,1.00
2019-01-13T16:21:22.491Z,1.10
2019-01-13T16:23:52.374Z,0.83
2019-01-13T16:26:22.274Z,0.90
2019-01-13T16:28:52.215Z,1.00
2019-01-13T16:31:22.271Z,1.00
2019-01-13T16:33:53.173Z,0.90
2019-01-13T16:36:23.084Z,0.90
2019-01-13T16:38:53.102Z,0.80
2019-01-13T16:41:23.033Z,0.90
2019-01-13T16:43:52.942Z,1.23
2019-01-13T16:46:22.857Z,1.20
2019-01-13T16:48:52.792Z,1.80
2019-01-13T16:51:22.737Z,1.20
2019-01-13T16:53:52.660Z,1.20
2019-01-13T16:56:23.258Z,1.40
2019-01-13T16:58:53.109Z,1.60
2019-01-13T17:01:23.070Z,1.60
2019-01-13T17:03:52.996Z,1.80
2019-01-13T17:06:22.923Z,2.00
2019-01-13T17:08:52.941Z,1.60
2019-01-13T17:11:22.785Z,1.67
2019-01-13T17:13:52.704Z,1.67
2019-01-13T17:16:22.535Z,1.63
2019-01-13T17:18:52.683Z,1.90
2019-01-13T17:21:22.593Z,1.60
2019-01-13T17:23:52.506Z,1.80
2019-01-13T17:26:22.408Z,2.10
2019-01-13T17:28:52.304Z,2.13
2019-01-13T17:31:22.176Z,1.77
2019-01-13T17:33:52.093Z,2.33
2019-01-13T17:36:21.980Z,2.40
2019-01-13T17:38:51.862Z,2.33
2019-01-13T17:41:21.784Z,2.20
2019-01-13T17:43:51.759Z,1.50
2019-01-13T17:46:21.746Z,1.83
2019-01-13T17:48:51.853Z,1.80
2019-01-13T17:51:21.740Z,1.10
2019-01-13T17:53:51.699Z,1.13
2019-01-13T17:56:22.575Z,1.73
2019-01-13T17:58:52.508Z,1.67
2019-01-13T18:01:44.792Z,1.83
2019-01-13T18:04:15.132Z,1.57
2019-01-13T18:06:45.045Z,1.67
2019-01-13T18:09:14.958Z,1.63
2019-01-13T18:11:44.818Z,1.53
2019-01-13T18:14:14.699Z,2.77
2019-01-13T18:16:44.632Z,2.13
2019-01-13T18:19:14.598Z,1.93
2019-01-13T18:21:44.532Z,1.77
2019-01-13T18:24:14.496Z,2.40
2019-01-13T18:26:44.350Z,1.60
2019-01-13T18:29:14.312Z,2.10
2019-01-13T18:31:44.241Z,2.60
2019-01-13T18:34:14.221Z,2.60
2019-01-13T18:36:44.057Z,2.00
2019-01-13T18:39:14.000Z,2.23
2019-01-13T18:41:43.917Z,2.00
2019-01-13T18:44:13.847Z,1.60
2019-01-13T18:46:43.689Z,2.17
2019-01-13T18:49:13.617Z,2.97
2019-01-13T18:51:43.503Z,2.37
2019-01-13T18:54:13.469Z,2.33
2019-01-13T18:56:43.396Z,2.37
2019-01-13T18:59:13.326Z,2.63
2019-01-13T19:01:43.319Z,2.50
2019-01-13T19:04:13.255Z,2.87
2019-01-13T19:06:43.122Z,1.93
2019-01-13T19:09:15.872Z,2.10
2019-01-13T19:11:49.906Z,2.33
2019-01-13T19:14:40.543Z,4.40
2019-01-13T19:17:17.923Z,2.50
2019-01-13T19:19:56.014Z,2.40
2019-01-13T19:22:28.146Z,1.83
2019-01-13T19:25:03.112Z,2.00
2019-01-13T19:27:33.340Z,2.47
2019-01-13T19:30:03.676Z,2.40
2019-01-13T19:32:33.511Z,2.40
2019-01-13T19:35:04.709Z,1.90
2019-01-13T19:37:34.894Z,2.10
2019-01-13T19:40:05.805Z,2.07
2019-01-13T19:42:35.747Z,2.40
2019-01-13T19:45:07.445Z,1.83
2019-01-13T19:47:37.360Z,1.90
2019-01-13T19:50:09.753Z,2.50
2019-01-13T19:52:39.646Z,2.50
2019-01-13T19:55:11.742Z,2.03
2019-01-13T19:57:41.589Z,2.43
2019-01-13T20:00:18.391Z,2.33
2019-01-13T20:02:48.223Z,2.07
2019-01-13T20:05:18.525Z,1.97
2019-01-13T20:07:48.408Z,1.90
2019-01-13T20:10:18.272Z,1.37
2019-01-13T20:12:48.155Z,1.67
2019-01-13T20:15:18.124Z,1.57
2019-01-13T20:17:48.025Z,1.53
2019-01-13T20:20:18.091Z,1.47
2019-01-13T20:22:48.116Z,1.80
2019-01-13T20:25:18.202Z,2.00
2019-01-13T20:27:48.161Z,2.00
2019-01-13T20:30:20.536Z,1.50
2019-01-13T20:32:51.227Z,1.67
2019-01-13T20:35:21.146Z,1.60
2019-01-13T20:37:51.196Z,2.70
2019-01-13T20:40:21.692Z,2.57
2019-01-13T20:42:51.636Z,2.17
2019-01-13T20:45:25.011Z,2.10
2019-01-13T20:47:56.348Z,2.27
2019-01-13T20:50:26.205Z,2.17
2019-01-13T20:52:56.124Z,2.80
2019-01-13T20:55:26.053Z,3.30
2019-01-13T20:57:55.920Z,3.13
2019-01-13T21:00:25.954Z,3.60
2019-01-13T21:02:55.867Z,2.70
2019-01-13T21:05:26.767Z,2.80
2019-01-13T21:07:57.626Z,2.90
2019-01-13T21:10:27.598Z,2.90
2019-01-13T21:12:57.505Z,2.90
2019-01-13T21:15:32.256Z,2.80
2019-01-13T21:18:02.168Z,2.73
2019-01-13T21:20:32.029Z,3.20
2019-01-13T21:23:01.964Z,3.20
2019-01-13T21:25:31.824Z,2.60
2019-01-13T21:28:02.402Z,2.60
2019-01-13T21:30:33.007Z,2.53
2019-01-13T21:33:02.887Z,2.80
2019-01-13T21:35:34.014Z,3.53
2019-01-13T21:38:04.330Z,2.80
2019-01-13T21:40:34.238Z,3.13
2019-01-13T21:43:04.219Z,2.70
2019-01-13T21:45:34.267Z,2.37
2019-01-13T21:48:04.266Z,2.43
2019-01-13T21:50:34.195Z,2.87
2019-01-13T21:53:04.094Z,3.13
2019-01-13T21:55:34.112Z,2.20
2019-01-13T21:58:04.073Z,2.07
2019-01-13T22:00:34.029Z,2.60
2019-01-13T22:03:03.985Z,2.30
2019-01-13T22:05:40.795Z,1.87
2019-01-13T22:08:05.367Z,2.20
2019-01-13T22:10:35.218Z,2.60
2019-01-13T22:13:06.149Z,2.40
2019-01-13T22:15:36.246Z,2.10
2019-01-13T22:18:06.180Z,3.17
2019-01-13T22:20:36.112Z,2.50
2019-01-13T22:23:06.208Z,2.60
2019-01-13T22:25:36.170Z,2.13
2019-01-13T22:28:07.092Z,2.37
2019-01-13T22:30:37.076Z,3.77
2019-01-13T22:33:07.174Z,2.30
2019-01-13T22:35:37.021Z,2.83
2019-01-13T22:38:07.037Z,2.00
2019-01-13T22:40:36.872Z,1.90
2019-01-13T22:43:06.743Z,1.87
2019-01-13T22:45:36.693Z,2.30
2019-01-13T22:48:06.562Z,2.10
2019-01-13T22:50:36.440Z,3.13
2019-01-13T22:53:06.558Z,2.07
2019-01-13T22:55:36.463Z,2.60
2019-01-13T22:58:06.427Z,2.50
2019-01-13T23:01:17.406Z,2.23
2019-01-13T23:03:47.763Z,2.50
2019-01-13T23:06:17.666Z,2.00
2019-01-13T23:08:47.631Z,1.93
2019-01-13T23:11:17.554Z,1.90
2019-01-13T23:13:47.477Z,1.87
2019-01-13T23:16:17.485Z,2.20
2019-01-13T23:18:47.528Z,1.73
2019-01-13T23:21:17.548Z,2.70
2019-01-13T23:23:47.432Z,2.20
2019-01-13T23:26:17.287Z,2.23
2019-01-13T23:28:47.164Z,2.43
2019-01-13T23:31:17.087Z,1.97
2019-01-13T23:33:46.977Z,1.93
2019-01-13T23:36:16.799Z,1.70
2019-01-13T23:38:46.856Z,1.00
2019-01-13T23:41:16.799Z,1.10
2019-01-13T23:43:47.016Z,1.53
2019-01-13T23:46:16.899Z,1.20
2019-01-13T23:48:46.819Z,1.83
2019-01-13T23:51:16.842Z,1.30
2019-01-13T23:53:46.696Z,1.80
2019-01-13T23:56:16.647Z,1.43
2019-01-13T23:58:46.516Z,1.47
